sensor_id;sensor_type;location;lat;lon;timestamp;P1;durP1;ratioP1;P2;durP2;ratioP2
77880;SDS011;67077;50.298;18.996;2023-07-29T00:02:00;14.60;;;9.90;;
77880;SDS011;67077;50.298;18.996;2023-07-29T00:04:27;13.30;;;9.50;;
77880;SDS011;67077;50.298;18.996;2023-07-29T00:06:53;13.60;;;8.70;;
77880;SDS011;67077;50.298;18.996;2023-07-29T00:09:44;14.50;;;9.60;;
77880;SDS011;67077;50.298;18.996;2023-07-29T00:12:44;13.60;;;9.40;;
77880;SDS011;67077;50.298;18.996;2023-07-29T00:16:28;14.50;;;9.60;;
77880;SDS011;67077;50.298;18.996;2023-07-29T00:23:23;13.80;;;9.30;;
77880;SDS011;67077;50.298;18.996;2023-07-29T00:25:55;17.60;;;9.70;;
77880;SDS011;67077;50.298;18.996;2023-07-29T00:28:24;12.90;;;9.50;;
77880;SDS011;67077;50.298;18.996;2023-07-29T00:30:51;14.80;;;9.40;;
77880;SDS011;67077;50.298;18.996;2023-07-29T00:33:18;11.90;;;8.90;;
77880;SDS011;67077;50.298;18.996;2023-07-29T00:35:47;12.30;;;8.70;;
77880;SDS011;67077;50.298;18.996;2023-07-29T00:38:14;13.00;;;9.20;;
77880;SDS011;67077;50.298;18.996;2023-07-29T00:40:42;15.80;;;9.70;;
77880;SDS011;67077;50.298;18.996;2023-07-29T00:43:09;12.90;;;9.40;;
77880;SDS011;67077;50.298;18.996;2023-07-29T00:45:36;12.50;;;9.80;;
77880;SDS011;67077;50.298;18.996;2023-07-29T00:48:04;14.60;;;9.60;;
77880;SDS011;67077;50.298;18.996;2023-07-29T00:50:32;16.40;;;10.10;;
77880;SDS011;67077;50.298;18.996;2023-07-29T00:52:59;15.10;;;10.20;;
77880;SDS011;67077;50.298;18.996;2023-07-29T00:55:26;14.30;;;9.20;;
77880;SDS011;67077;50.298;18.996;2023-07-29T00:57:54;13.30;;;8.60;;
77880;SDS011;67077;50.298;18.996;2023-07-29T01:00:22;11.30;;;8.40;;
77880;SDS011;67077;50.298;18.996;2023-07-29T01:02:49;12.20;;;8.90;;
77880;SDS011;67077;50.298;18.996;2023-07-29T01:05:16;11.10;;;8.00;;
77880;SDS011;67077;50.298;18.996;2023-07-29T01:07:53;10.30;;;8.10;;
77880;SDS011;67077;50.298;18.996;2023-07-29T01:14:09;11.00;;;7.90;;
77880;SDS011;67077;50.298;18.996;2023-07-29T01:16:45;13.40;;;8.40;;
77880;SDS011;67077;50.298;18.996;2023-07-29T01:22:14;13.70;;;8.00;;
77880;SDS011;67077;50.298;18.996;2023-07-29T01:24:44;10.60;;;7.90;;
77880;SDS011;67077;50.298;18.996;2023-07-29T01:27:11;12.10;;;7.80;;
77880;SDS011;67077;50.298;18.996;2023-07-29T01:29:39;11.90;;;7.90;;
77880;SDS011;67077;50.298;18.996;2023-07-29T01:32:30;9.60;;;7.20;;
77880;SDS011;67077;50.298;18.996;2023-07-29T01:38:36;9.50;;;7.00;;
77880;SDS011;67077;50.298;18.996;2023-07-29T01:41:50;11.20;;;7.10;;
77880;SDS011;67077;50.298;18.996;2023-07-29T01:44:45;10.50;;;7.10;;
77880;SDS011;67077;50.298;18.996;2023-07-29T01:48:02;14.10;;;7.10;;
77880;SDS011;67077;50.298;18.996;2023-07-29T01:50:57;11.60;;;7.40;;
77880;SDS011;67077;50.298;18.996;2023-07-29T01:53:28;11.20;;;7.60;;
77880;SDS011;67077;50.298;18.996;2023-07-29T01:55:57;10.60;;;6.90;;
77880;SDS011;67077;50.298;18.996;2023-07-29T01:58:25;13.30;;;7.90;;
77880;SDS011;67077;50.298;18.996;2023-07-29T02:00:53;13.80;;;7.80;;
77880;SDS011;67077;50.298;18.996;2023-07-29T02:03:24;11.00;;;7.80;;
77880;SDS011;67077;50.298;18.996;2023-07-29T02:06:01;11.90;;;7.40;;
77880;SDS011;67077;50.298;18.996;2023-07-29T02:08:37;11.40;;;7.40;;
77880;SDS011;67077;50.298;18.996;2023-07-29T02:11:10;10.40;;;7.50;;
77880;SDS011;67077;50.298;18.996;2023-07-29T02:13:44;10.30;;;7.80;;
77880;SDS011;67077;50.298;18.996;2023-07-29T02:16:30;12.50;;;7.60;;
77880;SDS011;67077;50.298;18.996;2023-07-29T02:19:18;10.90;;;7.30;;
77880;SDS011;67077;50.298;18.996;2023-07-29T02:22:17;11.00;;;7.40;;
77880;SDS011;67077;50.298;18.996;2023-07-29T02:25:17;11.30;;;7.70;;
77880;SDS011;67077;50.298;18.996;2023-07-29T02:28:48;11.10;;;7.50;;
77880;SDS011;67077;50.298;18.996;2023-07-29T02:35:20;10.70;;;7.90;;
77880;SDS011;67077;50.298;18.996;2023-07-29T02:38:52;12.90;;;7.90;;
77880;SDS011;67077;50.298;18.996;2023-07-29T02:41:44;12.40;;;7.90;;
77880;SDS011;67077;50.298;18.996;2023-07-29T02:44:35;11.00;;;7.30;;
77880;SDS011;67077;50.298;18.996;2023-07-29T02:47:22;12.60;;;7.70;;
77880;SDS011;67077;50.298;18.996;2023-07-29T02:50:26;13.40;;;7.30;;
77880;SDS011;67077;50.298;18.996;2023-07-29T02:53:18;11.30;;;7.40;;
77880;SDS011;67077;50.298;18.996;2023-07-29T02:56:09;11.80;;;7.50;;
77880;SDS011;67077;50.298;18.996;2023-07-29T02:58:51;11.10;;;7.60;;
77880;SDS011;67077;50.298;18.996;2023-07-29T03:01:37;11.80;;;7.40;;
77880;SDS011;67077;50.298;18.996;2023-07-29T03:04:06;10.70;;;7.50;;
77880;SDS011;67077;50.298;18.996;2023-07-29T03:06:36;11.10;;;7.70;;
77880;SDS011;67077;50.298;18.996;2023-07-29T03:09:04;11.60;;;7.70;;
77880;SDS011;67077;50.298;18.996;2023-07-29T03:11:32;11.30;;;7.60;;
77880;SDS011;67077;50.298;18.996;2023-07-29T03:14:00;14.00;;;8.00;;
77880;SDS011;67077;50.298;18.996;2023-07-29T03:16:29;10.90;;;7.70;;
77880;SDS011;67077;50.298;18.996;2023-07-29T03:18:58;11.40;;;8.20;;
77880;SDS011;67077;50.298;18.996;2023-07-29T03:21:31;11.30;;;7.90;;
77880;SDS011;67077;50.298;18.996;2023-07-29T03:24:03;14.20;;;8.50;;
77880;SDS011;67077;50.298;18.996;2023-07-29T03:26:34;14.30;;;8.40;;
77880;SDS011;67077;50.298;18.996;2023-07-29T03:29:06;13.40;;;8.00;;
77880;SDS011;67077;50.298;18.996;2023-07-29T03:31:36;13.40;;;8.40;;
77880;SDS011;67077;50.298;18.996;2023-07-29T03:34:18;14.00;;;8.30;;
77880;SDS011;67077;50.298;18.996;2023-07-29T03:36:54;14.90;;;8.90;;
77880;SDS011;67077;50.298;18.996;2023-07-29T03:39:37;14.60;;;8.70;;
77880;SDS011;67077;50.298;18.996;2023-07-29T03:42:45;16.90;;;9.10;;
77880;SDS011;67077;50.298;18.996;2023-07-29T03:45:39;12.90;;;8.90;;
77880;SDS011;67077;50.298;18.996;2023-07-29T03:49:22;16.30;;;9.00;;
77880;SDS011;67077;50.298;18.996;2023-07-29T03:52:47;18.10;;;9.60;;
77880;SDS011;67077;50.298;18.996;2023-07-29T03:56:15;16.10;;;9.20;;
77880;SDS011;67077;50.298;18.996;2023-07-29T03:59:25;23.00;;;10.90;;
77880;SDS011;67077;50.298;18.996;2023-07-29T04:02:43;17.60;;;9.20;;
77880;SDS011;67077;50.298;18.996;2023-07-29T04:06:08;15.40;;;8.90;;
77880;SDS011;67077;50.298;18.996;2023-07-29T04:08:59;16.90;;;8.60;;
77880;SDS011;67077;50.298;18.996;2023-07-29T04:11:33;14.80;;;8.60;;
77880;SDS011;67077;50.298;18.996;2023-07-29T04:14:06;15.10;;;8.80;;
77880;SDS011;67077;50.298;18.996;2023-07-29T04:16:33;12.90;;;7.30;;
77880;SDS011;67077;50.298;18.996;2023-07-29T04:19:00;15.80;;;8.00;;
77880;SDS011;67077;50.298;18.996;2023-07-29T04:21:28;11.50;;;7.10;;
77880;SDS011;67077;50.298;18.996;2023-07-29T04:23:56;13.20;;;7.30;;
77880;SDS011;67077;50.298;18.996;2023-07-29T04:26:24;11.90;;;6.90;;
77880;SDS011;67077;50.298;18.996;2023-07-29T04:28:51;14.60;;;6.80;;
77880;SDS011;67077;50.298;18.996;2023-07-29T04:31:18;8.30;;;5.90;;
77880;SDS011;67077;50.298;18.996;2023-07-29T04:33:44;9.20;;;6.50;;
77880;SDS011;67077;50.298;18.996;2023-07-29T04:36:11;8.50;;;6.10;;
77880;SDS011;67077;50.298;18.996;2023-07-29T04:38:38;9.00;;;6.00;;
77880;SDS011;67077;50.298;18.996;2023-07-29T04:41:05;12.30;;;6.20;;
77880;SDS011;67077;50.298;18.996;2023-07-29T04:43:33;11.90;;;6.30;;
77880;SDS011;67077;50.298;18.996;2023-07-29T04:46:00;11.70;;;6.40;;
77880;SDS011;67077;50.298;18.996;2023-07-29T04:48:26;14.50;;;6.30;;
77880;SDS011;67077;50.298;18.996;2023-07-29T04:50:53;10.50;;;6.00;;
77880;SDS011;67077;50.298;18.996;2023-07-29T04:53:20;9.70;;;6.00;;
77880;SDS011;67077;50.298;18.996;2023-07-29T04:55:47;9.60;;;6.10;;
77880;SDS011;67077;50.298;18.996;2023-07-29T04:58:14;8.50;;;6.10;;
77880;SDS011;67077;50.298;18.996;2023-07-29T05:00:41;9.80;;;6.30;;
77880;SDS011;67077;50.298;18.996;2023-07-29T05:03:08;13.20;;;6.30;;
77880;SDS011;67077;50.298;18.996;2023-07-29T05:05:35;8.60;;;6.10;;
77880;SDS011;67077;50.298;18.996;2023-07-29T05:08:01;12.30;;;7.10;;
77880;SDS011;67077;50.298;18.996;2023-07-29T05:10:28;9.50;;;5.80;;
77880;SDS011;67077;50.298;18.996;2023-07-29T05:12:55;9.20;;;6.10;;
77880;SDS011;67077;50.298;18.996;2023-07-29T05:15:22;14.60;;;6.20;;
77880;SDS011;67077;50.298;18.996;2023-07-29T05:17:49;11.60;;;5.90;;
77880;SDS011;67077;50.298;18.996;2023-07-29T05:20:16;10.30;;;6.30;;
77880;SDS011;67077;50.298;18.996;2023-07-29T05:22:43;11.90;;;6.40;;
77880;SDS011;67077;50.298;18.996;2023-07-29T05:25:10;9.60;;;5.80;;
77880;SDS011;67077;50.298;18.996;2023-07-29T05:27:36;9.20;;;6.20;;
77880;SDS011;67077;50.298;18.996;2023-07-29T05:30:03;8.20;;;5.50;;
77880;SDS011;67077;50.298;18.996;2023-07-29T05:32:30;6.80;;;5.40;;
77880;SDS011;67077;50.298;18.996;2023-07-29T05:34:57;9.10;;;5.60;;
77880;SDS011;67077;50.298;18.996;2023-07-29T05:37:25;9.10;;;5.50;;
77880;SDS011;67077;50.298;18.996;2023-07-29T05:39:51;8.20;;;5.10;;
77880;SDS011;67077;50.298;18.996;2023-07-29T05:42:18;9.70;;;5.50;;
77880;SDS011;67077;50.298;18.996;2023-07-29T05:44:45;8.40;;;5.00;;
77880;SDS011;67077;50.298;18.996;2023-07-29T05:47:11;8.30;;;5.20;;
77880;SDS011;67077;50.298;18.996;2023-07-29T05:49:38;5.90;;;4.60;;
77880;SDS011;67077;50.298;18.996;2023-07-29T05:52:05;5.90;;;4.60;;
77880;SDS011;67077;50.298;18.996;2023-07-29T05:54:32;5.60;;;4.40;;
77880;SDS011;67077;50.298;18.996;2023-07-29T05:56:59;10.60;;;4.80;;
77880;SDS011;67077;50.298;18.996;2023-07-29T05:59:25;6.50;;;4.20;;
77880;SDS011;67077;50.298;18.996;2023-07-29T06:01:55;7.10;;;4.20;;
77880;SDS011;67077;50.298;18.996;2023-07-29T06:04:23;5.30;;;4.20;;
77880;SDS011;67077;50.298;18.996;2023-07-29T06:06:49;5.00;;;4.00;;
77880;SDS011;67077;50.298;18.996;2023-07-29T06:09:16;5.00;;;4.00;;
77880;SDS011;67077;50.298;18.996;2023-07-29T06:11:43;5.10;;;3.90;;
77880;SDS011;67077;50.298;18.996;2023-07-29T06:14:09;6.40;;;3.80;;
77880;SDS011;67077;50.298;18.996;2023-07-29T06:16:36;6.50;;;3.50;;
77880;SDS011;67077;50.298;18.996;2023-07-29T06:19:03;5.20;;;3.80;;
77880;SDS011;67077;50.298;18.996;2023-07-29T06:21:30;7.40;;;3.70;;
77880;SDS011;67077;50.298;18.996;2023-07-29T06:23:57;8.00;;;3.70;;
77880;SDS011;67077;50.298;18.996;2023-07-29T06:26:24;4.60;;;3.50;;
77880;SDS011;67077;50.298;18.996;2023-07-29T06:28:50;7.20;;;3.60;;
77880;SDS011;67077;50.298;18.996;2023-07-29T06:31:17;6.20;;;3.40;;
77880;SDS011;67077;50.298;18.996;2023-07-29T06:33:44;3.80;;;3.10;;
77880;SDS011;67077;50.298;18.996;2023-07-29T06:36:11;4.50;;;3.40;;
77880;SDS011;67077;50.298;18.996;2023-07-29T06:38:38;3.90;;;3.30;;
77880;SDS011;67077;50.298;18.996;2023-07-29T06:41:05;3.80;;;3.00;;
77880;SDS011;67077;50.298;18.996;2023-07-29T06:43:31;3.60;;;3.10;;
77880;SDS011;67077;50.298;18.996;2023-07-29T06:45:58;5.40;;;3.80;;
77880;SDS011;67077;50.298;18.996;2023-07-29T06:48:25;5.90;;;3.60;;
77880;SDS011;67077;50.298;18.996;2023-07-29T06:50:52;8.00;;;3.90;;
77880;SDS011;67077;50.298;18.996;2023-07-29T06:53:18;5.50;;;3.90;;
77880;SDS011;67077;50.298;18.996;2023-07-29T06:55:46;4.50;;;3.50;;
77880;SDS011;67077;50.298;18.996;2023-07-29T06:58:13;5.60;;;3.70;;
77880;SDS011;67077;50.298;18.996;2023-07-29T07:00:40;5.70;;;3.70;;
77880;SDS011;67077;50.298;18.996;2023-07-29T07:03:07;5.20;;;3.50;;
77880;SDS011;67077;50.298;18.996;2023-07-29T07:05:37;4.10;;;2.90;;
77880;SDS011;67077;50.298;18.996;2023-07-29T07:08:04;6.30;;;3.10;;
77880;SDS011;67077;50.298;18.996;2023-07-29T07:10:30;5.60;;;3.00;;
77880;SDS011;67077;50.298;18.996;2023-07-29T07:12:57;5.80;;;3.60;;
77880;SDS011;67077;50.298;18.996;2023-07-29T07:15:25;4.00;;;3.40;;
77880;SDS011;67077;50.298;18.996;2023-07-29T07:17:53;7.70;;;3.80;;
77880;SDS011;67077;50.298;18.996;2023-07-29T07:20:23;5.40;;;3.70;;
77880;SDS011;67077;50.298;18.996;2023-07-29T07:22:50;5.50;;;3.40;;
77880;SDS011;67077;50.298;18.996;2023-07-29T07:25:17;5.70;;;3.80;;
77880;SDS011;67077;50.298;18.996;2023-07-29T07:27:44;6.60;;;3.70;;
77880;SDS011;67077;50.298;18.996;2023-07-29T07:30:11;6.70;;;2.80;;
77880;SDS011;67077;50.298;18.996;2023-07-29T07:32:38;3.20;;;2.50;;
77880;SDS011;67077;50.298;18.996;2023-07-29T07:35:07;3.10;;;2.60;;
77880;SDS011;67077;50.298;18.996;2023-07-29T07:37:34;3.50;;;2.70;;
77880;SDS011;67077;50.298;18.996;2023-07-29T07:40:01;3.20;;;2.30;;
77880;SDS011;67077;50.298;18.996;2023-07-29T07:42:28;3.50;;;2.60;;
77880;SDS011;67077;50.298;18.996;2023-07-29T07:44:55;4.10;;;2.30;;
77880;SDS011;67077;50.298;18.996;2023-07-29T07:47:22;2.40;;;2.20;;
77880;SDS011;67077;50.298;18.996;2023-07-29T07:49:49;3.20;;;2.30;;
77880;SDS011;67077;50.298;18.996;2023-07-29T07:52:17;3.50;;;2.50;;
77880;SDS011;67077;50.298;18.996;2023-07-29T07:54:43;2.50;;;2.30;;
77880;SDS011;67077;50.298;18.996;2023-07-29T07:57:10;2.80;;;1.90;;
77880;SDS011;67077;50.298;18.996;2023-07-29T07:59:36;2.40;;;2.20;;
77880;SDS011;67077;50.298;18.996;2023-07-29T08:02:03;2.80;;;2.30;;
77880;SDS011;67077;50.298;18.996;2023-07-29T08:04:30;4.80;;;2.20;;
77880;SDS011;67077;50.298;18.996;2023-07-29T08:06:57;3.70;;;2.20;;
77880;SDS011;67077;50.298;18.996;2023-07-29T08:09:24;3.50;;;2.40;;
77880;SDS011;67077;50.298;18.996;2023-07-29T08:11:51;3.50;;;2.40;;
77880;SDS011;67077;50.298;18.996;2023-07-29T08:14:18;4.50;;;2.60;;
77880;SDS011;67077;50.298;18.996;2023-07-29T08:16:46;4.00;;;2.80;;
77880;SDS011;67077;50.298;18.996;2023-07-29T08:19:13;3.70;;;2.80;;
77880;SDS011;67077;50.298;18.996;2023-07-29T08:21:40;4.70;;;2.90;;
77880;SDS011;67077;50.298;18.996;2023-07-29T08:24:07;3.30;;;2.80;;
77880;SDS011;67077;50.298;18.996;2023-07-29T08:26:34;4.30;;;3.20;;
77880;SDS011;67077;50.298;18.996;2023-07-29T08:29:01;5.10;;;2.20;;
77880;SDS011;67077;50.298;18.996;2023-07-29T08:31:28;3.00;;;2.20;;
77880;SDS011;67077;50.298;18.996;2023-07-29T08:33:58;5.40;;;2.40;;
77880;SDS011;67077;50.298;18.996;2023-07-29T08:36:35;6.10;;;2.70;;
77880;SDS011;67077;50.298;18.996;2023-07-29T08:43:16;2.90;;;2.10;;
77880;SDS011;67077;50.298;18.996;2023-07-29T08:45:45;5.50;;;2.30;;
77880;SDS011;67077;50.298;18.996;2023-07-29T08:48:12;5.10;;;2.60;;
77880;SDS011;67077;50.298;18.996;2023-07-29T08:50:42;5.80;;;2.50;;
77880;SDS011;67077;50.298;18.996;2023-07-29T08:53:10;3.30;;;2.50;;
77880;SDS011;67077;50.298;18.996;2023-07-29T08:55:39;4.50;;;2.10;;
77880;SDS011;67077;50.298;18.996;2023-07-29T08:58:06;3.10;;;2.20;;
77880;SDS011;67077;50.298;18.996;2023-07-29T09:00:33;2.30;;;2.10;;
77880;SDS011;67077;50.298;18.996;2023-07-29T09:03:01;2.40;;;2.00;;
77880;SDS011;67077;50.298;18.996;2023-07-29T09:07:59;3.20;;;2.10;;
77880;SDS011;67077;50.298;18.996;2023-07-29T09:10:29;3.60;;;2.00;;
77880;SDS011;67077;50.298;18.996;2023-07-29T09:12:56;3.60;;;2.00;;
77880;SDS011;67077;50.298;18.996;2023-07-29T09:15:26;2.30;;;2.10;;
77880;SDS011;67077;50.298;18.996;2023-07-29T09:17:55;1.80;;;1.70;;
77880;SDS011;67077;50.298;18.996;2023-07-29T09:20:26;3.40;;;1.90;;
77880;SDS011;67077;50.298;18.996;2023-07-29T09:22:54;3.20;;;2.00;;
77880;SDS011;67077;50.298;18.996;2023-07-29T09:25:22;2.50;;;1.90;;
77880;SDS011;67077;50.298;18.996;2023-07-29T09:27:53;3.00;;;1.90;;
77880;SDS011;67077;50.298;18.996;2023-07-29T09:30:26;2.60;;;2.20;;
77880;SDS011;67077;50.298;18.996;2023-07-29T09:32:57;2.60;;;1.90;;
77880;SDS011;67077;50.298;18.996;2023-07-29T09:35:29;4.40;;;2.20;;
77880;SDS011;67077;50.298;18.996;2023-07-29T09:37:58;4.00;;;2.40;;
77880;SDS011;67077;50.298;18.996;2023-07-29T09:40:25;7.00;;;2.80;;
77880;SDS011;67077;50.298;18.996;2023-07-29T09:42:52;4.80;;;2.40;;
77880;SDS011;67077;50.298;18.996;2023-07-29T09:45:24;7.60;;;3.40;;
77880;SDS011;67077;50.298;18.996;2023-07-29T09:47:53;6.80;;;2.80;;
77880;SDS011;67077;50.298;18.996;2023-07-29T09:50:23;3.70;;;2.30;;
77880;SDS011;67077;50.298;18.996;2023-07-29T09:52:51;3.80;;;2.30;;
77880;SDS011;67077;50.298;18.996;2023-07-29T09:55:23;5.60;;;2.30;;
77880;SDS011;67077;50.298;18.996;2023-07-29T09:58:08;4.10;;;2.60;;
77880;SDS011;67077;50.298;18.996;2023-07-29T10:00:35;6.20;;;2.30;;
77880;SDS011;67077;50.298;18.996;2023-07-29T10:03:02;4.00;;;2.40;;
77880;SDS011;67077;50.298;18.996;2023-07-29T10:05:29;3.00;;;2.30;;
77880;SDS011;67077;50.298;18.996;2023-07-29T10:07:56;4.50;;;2.20;;
77880;SDS011;67077;50.298;18.996;2023-07-29T10:10:23;2.90;;;2.20;;
77880;SDS011;67077;50.298;18.996;2023-07-29T10:12:50;3.60;;;2.10;;
77880;SDS011;67077;50.298;18.996;2023-07-29T10:15:16;4.70;;;2.50;;
77880;SDS011;67077;50.298;18.996;2023-07-29T10:17:43;5.20;;;2.40;;
77880;SDS011;67077;50.298;18.996;2023-07-29T10:20:12;2.80;;;2.20;;
77880;SDS011;67077;50.298;18.996;2023-07-29T10:22:39;3.50;;;2.20;;
77880;SDS011;67077;50.298;18.996;2023-07-29T10:25:08;3.80;;;2.50;;
77880;SDS011;67077;50.298;18.996;2023-07-29T10:30:31;3.70;;;2.20;;
77880;SDS011;67077;50.298;18.996;2023-07-29T10:32:59;3.80;;;2.20;;
77880;SDS011;67077;50.298;18.996;2023-07-29T10:35:28;2.80;;;2.20;;
77880;SDS011;67077;50.298;18.996;2023-07-29T10:37:55;4.00;;;2.00;;
77880;SDS011;67077;50.298;18.996;2023-07-29T10:40:22;4.20;;;2.10;;
77880;SDS011;67077;50.298;18.996;2023-07-29T10:42:59;2.50;;;2.20;;
77880;SDS011;67077;50.298;18.996;2023-07-29T10:45:27;2.90;;;2.20;;
77880;SDS011;67077;50.298;18.996;2023-07-29T10:48:12;4.90;;;2.40;;
77880;SDS011;67077;50.298;18.996;2023-07-29T10:50:40;3.40;;;2.50;;
77880;SDS011;67077;50.298;18.996;2023-07-29T10:53:06;3.80;;;2.60;;
77880;SDS011;67077;50.298;18.996;2023-07-29T10:55:33;3.30;;;2.60;;
77880;SDS011;67077;50.298;18.996;2023-07-29T10:58:13;3.60;;;2.50;;
77880;SDS011;67077;50.298;18.996;2023-07-29T11:00:41;4.40;;;2.50;;
77880;SDS011;67077;50.298;18.996;2023-07-29T11:03:10;2.90;;;2.40;;
77880;SDS011;67077;50.298;18.996;2023-07-29T11:05:48;4.00;;;2.60;;
77880;SDS011;67077;50.298;18.996;2023-07-29T11:13:28;8.10;;;2.70;;
77880;SDS011;67077;50.298;18.996;2023-07-29T11:15:55;3.60;;;2.60;;
77880;SDS011;67077;50.298;18.996;2023-07-29T11:18:26;4.30;;;3.10;;
77880;SDS011;67077;50.298;18.996;2023-07-29T11:20:57;4.90;;;2.50;;
77880;SDS011;67077;50.298;18.996;2023-07-29T11:23:31;6.00;;;2.60;;
77880;SDS011;67077;50.298;18.996;2023-07-29T11:26:00;3.00;;;2.30;;
77880;SDS011;67077;50.298;18.996;2023-07-29T11:28:28;3.40;;;2.10;;
77880;SDS011;67077;50.298;18.996;2023-07-29T11:30:55;3.00;;;2.20;;
77880;SDS011;67077;50.298;18.996;2023-07-29T11:33:23;2.30;;;2.00;;
77880;SDS011;67077;50.298;18.996;2023-07-29T11:35:51;3.70;;;2.30;;
77880;SDS011;67077;50.298;18.996;2023-07-29T11:38:19;3.40;;;2.60;;
77880;SDS011;67077;50.298;18.996;2023-07-29T11:40:58;5.40;;;2.30;;
77880;SDS011;67077;50.298;18.996;2023-07-29T11:43:29;3.70;;;2.40;;
77880;SDS011;67077;50.298;18.996;2023-07-29T11:45:56;3.40;;;2.10;;
77880;SDS011;67077;50.298;18.996;2023-07-29T11:48:30;2.70;;;1.90;;
77880;SDS011;67077;50.298;18.996;2023-07-29T11:50:58;3.10;;;2.30;;
77880;SDS011;67077;50.298;18.996;2023-07-29T11:53:26;6.30;;;2.40;;
77880;SDS011;67077;50.298;18.996;2023-07-29T11:55:58;2.40;;;2.10;;
77880;SDS011;67077;50.298;18.996;2023-07-29T11:58:26;2.80;;;2.30;;
77880;SDS011;67077;50.298;18.996;2023-07-29T12:00:52;2.40;;;2.20;;
77880;SDS011;67077;50.298;18.996;2023-07-29T12:03:19;3.90;;;2.00;;
77880;SDS011;67077;50.298;18.996;2023-07-29T12:05:46;3.60;;;2.40;;
77880;SDS011;67077;50.298;18.996;2023-07-29T12:08:13;5.40;;;2.40;;
77880;SDS011;67077;50.298;18.996;2023-07-29T12:10:40;3.30;;;2.10;;
77880;SDS011;67077;50.298;18.996;2023-07-29T12:13:07;3.60;;;2.30;;
77880;SDS011;67077;50.298;18.996;2023-07-29T12:15:34;4.10;;;2.40;;
77880;SDS011;67077;50.298;18.996;2023-07-29T12:18:00;2.60;;;2.40;;
77880;SDS011;67077;50.298;18.996;2023-07-29T12:20:28;3.50;;;2.50;;
77880;SDS011;67077;50.298;18.996;2023-07-29T12:22:56;3.00;;;2.50;;
77880;SDS011;67077;50.298;18.996;2023-07-29T12:25:25;2.40;;;2.20;;
77880;SDS011;67077;50.298;18.996;2023-07-29T12:27:52;3.60;;;2.60;;
77880;SDS011;67077;50.298;18.996;2023-07-29T12:30:22;4.10;;;2.40;;
77880;SDS011;67077;50.298;18.996;2023-07-29T12:32:49;5.30;;;2.30;;
77880;SDS011;67077;50.298;18.996;2023-07-29T12:35:15;3.70;;;2.30;;
77880;SDS011;67077;50.298;18.996;2023-07-29T12:37:42;3.50;;;2.10;;
77880;SDS011;67077;50.298;18.996;2023-07-29T12:40:30;4.90;;;2.40;;
77880;SDS011;67077;50.298;18.996;2023-07-29T12:42:56;3.10;;;2.20;;
77880;SDS011;67077;50.298;18.996;2023-07-29T12:45:23;2.30;;;2.10;;
77880;SDS011;67077;50.298;18.996;2023-07-29T12:47:53;2.40;;;2.10;;
77880;SDS011;67077;50.298;18.996;2023-07-29T12:50:20;3.10;;;2.20;;
77880;SDS011;67077;50.298;18.996;2023-07-29T12:52:47;6.60;;;2.10;;
77880;SDS011;67077;50.298;18.996;2023-07-29T12:55:14;5.40;;;2.10;;
77880;SDS011;67077;50.298;18.996;2023-07-29T12:57:41;2.50;;;2.20;;
77880;SDS011;67077;50.298;18.996;2023-07-29T13:00:09;3.00;;;2.10;;
77880;SDS011;67077;50.298;18.996;2023-07-29T13:02:36;2.80;;;2.20;;
77880;SDS011;67077;50.298;18.996;2023-07-29T13:05:03;3.60;;;2.10;;
77880;SDS011;67077;50.298;18.996;2023-07-29T13:07:30;3.40;;;2.20;;
77880;SDS011;67077;50.298;18.996;2023-07-29T13:09:56;2.40;;;2.20;;
77880;SDS011;67077;50.298;18.996;2023-07-29T13:12:22;2.80;;;2.20;;
77880;SDS011;67077;50.298;18.996;2023-07-29T13:14:49;3.40;;;2.10;;
77880;SDS011;67077;50.298;18.996;2023-07-29T13:17:15;4.30;;;2.00;;
77880;SDS011;67077;50.298;18.996;2023-07-29T13:19:42;2.80;;;1.90;;
77880;SDS011;67077;50.298;18.996;2023-07-29T13:22:08;4.80;;;2.40;;
77880;SDS011;67077;50.298;18.996;2023-07-29T13:24:35;4.00;;;1.90;;
77880;SDS011;67077;50.298;18.996;2023-07-29T13:27:01;1.80;;;1.70;;
77880;SDS011;67077;50.298;18.996;2023-07-29T13:29:30;2.10;;;1.70;;
77880;SDS011;67077;50.298;18.996;2023-07-29T13:31:56;2.60;;;1.90;;
77880;SDS011;67077;50.298;18.996;2023-07-29T13:34:22;2.10;;;1.80;;
77880;SDS011;67077;50.298;18.996;2023-07-29T13:36:49;3.50;;;1.60;;
77880;SDS011;67077;50.298;18.996;2023-07-29T13:39:15;2.40;;;1.60;;
77880;SDS011;67077;50.298;18.996;2023-07-29T13:41:42;3.10;;;1.70;;
77880;SDS011;67077;50.298;18.996;2023-07-29T13:44:08;3.40;;;1.90;;
77880;SDS011;67077;50.298;18.996;2023-07-29T13:46:35;3.10;;;1.70;;
77880;SDS011;67077;50.298;18.996;2023-07-29T13:49:01;2.60;;;1.90;;
77880;SDS011;67077;50.298;18.996;2023-07-29T13:51:29;3.00;;;1.60;;
77880;SDS011;67077;50.298;18.996;2023-07-29T13:53:55;2.40;;;1.60;;
77880;SDS011;67077;50.298;18.996;2023-07-29T13:56:22;2.50;;;1.60;;
77880;SDS011;67077;50.298;18.996;2023-07-29T13:58:48;2.20;;;1.60;;
77880;SDS011;67077;50.298;18.996;2023-07-29T14:01:15;3.50;;;1.80;;
77880;SDS011;67077;50.298;18.996;2023-07-29T14:03:41;2.20;;;1.60;;
77880;SDS011;67077;50.298;18.996;2023-07-29T14:06:08;2.70;;;1.60;;
77880;SDS011;67077;50.298;18.996;2023-07-29T14:08:34;1.50;;;1.20;;
77880;SDS011;67077;50.298;18.996;2023-07-29T14:11:01;1.80;;;1.50;;
77880;SDS011;67077;50.298;18.996;2023-07-29T14:13:27;1.80;;;1.20;;
77880;SDS011;67077;50.298;18.996;2023-07-29T14:15:54;1.70;;;1.40;;
77880;SDS011;67077;50.298;18.996;2023-07-29T14:18:20;1.50;;;1.30;;
77880;SDS011;67077;50.298;18.996;2023-07-29T14:20:47;1.30;;;1.20;;
77880;SDS011;67077;50.298;18.996;2023-07-29T14:23:13;4.60;;;1.40;;
77880;SDS011;67077;50.298;18.996;2023-07-29T14:25:40;1.60;;;1.20;;
77880;SDS011;67077;50.298;18.996;2023-07-29T14:28:06;3.00;;;1.30;;
77880;SDS011;67077;50.298;18.996;2023-07-29T14:30:33;2.80;;;1.20;;
77880;SDS011;67077;50.298;18.996;2023-07-29T14:33:00;2.00;;;1.20;;
77880;SDS011;67077;50.298;18.996;2023-07-29T14:35:26;4.20;;;1.30;;
77880;SDS011;67077;50.298;18.996;2023-07-29T14:37:53;1.50;;;1.20;;
77880;SDS011;67077;50.298;18.996;2023-07-29T14:40:19;1.60;;;1.20;;
77880;SDS011;67077;50.298;18.996;2023-07-29T14:42:46;1.40;;;1.20;;
77880;SDS011;67077;50.298;18.996;2023-07-29T14:45:12;1.80;;;1.30;;
77880;SDS011;67077;50.298;18.996;2023-07-29T14:47:38;2.20;;;1.30;;
77880;SDS011;67077;50.298;18.996;2023-07-29T14:50:05;3.00;;;1.30;;
77880;SDS011;67077;50.298;18.996;2023-07-29T14:52:32;2.90;;;1.20;;
77880;SDS011;67077;50.298;18.996;2023-07-29T14:54:58;2.20;;;1.30;;
77880;SDS011;67077;50.298;18.996;2023-07-29T14:57:25;1.70;;;1.30;;
77880;SDS011;67077;50.298;18.996;2023-07-29T14:59:51;3.70;;;1.40;;
77880;SDS011;67077;50.298;18.996;2023-07-29T15:02:18;2.50;;;1.30;;
77880;SDS011;67077;50.298;18.996;2023-07-29T15:04:44;1.60;;;1.40;;
77880;SDS011;67077;50.298;18.996;2023-07-29T15:07:10;2.40;;;1.30;;
77880;SDS011;67077;50.298;18.996;2023-07-29T15:09:37;2.50;;;1.40;;
77880;SDS011;67077;50.298;18.996;2023-07-29T15:12:03;2.40;;;1.40;;
77880;SDS011;67077;50.298;18.996;2023-07-29T15:14:30;1.50;;;1.40;;
77880;SDS011;67077;50.298;18.996;2023-07-29T15:16:57;3.60;;;1.40;;
77880;SDS011;67077;50.298;18.996;2023-07-29T15:19:23;1.50;;;1.40;;
77880;SDS011;67077;50.298;18.996;2023-07-29T15:21:51;2.00;;;1.40;;
77880;SDS011;67077;50.298;18.996;2023-07-29T15:24:17;1.80;;;1.50;;
77880;SDS011;67077;50.298;18.996;2023-07-29T15:26:44;1.50;;;1.30;;
77880;SDS011;67077;50.298;18.996;2023-07-29T15:29:10;2.80;;;1.70;;